Weather at Columbia Regional Airport

Public forecast

Using degrees Fahrenheit for public forecast. Weather courtesy of forecast.io.

Current aviation weather report (METAR) for Columbia Regional Airport

Retrieved 2020/09/18 11:54 UTC (35 minutes ago):

KCOU 181154Z 05007KT 10SM CLR 13/11 A3024 RMK AO2 SLP236 T01280111 10161 20128 53019

Aviation forecast (TAF) for Columbia Regional Airport

Retrieved 2020/09/18 12:22 UTC (7 minutes ago):

TAF KCOU 181120Z 1812/1912 04008KT P6SM SKC